Time;durP1;ratioP1;P1;durP2;ratioP2;P2;SDS_P1;SDS_P2;PMS_P1;PMS_P2;Temp;Humidity;BMP_temperature;BMP_pressure;BME280_temperature;BME280_humidity;BME280_pressure;Samples;Min_cycle;Max_cycle;Signal;HPM_P1;HPM_P2
2024/03/30 00:01:53;;;;;;;0.10;0.10;;;;;;;13.37;67.06;99739.63;5074413;28;20404;-79
2024/03/30 00:04:19;;;;;;;0.00;0.00;;;;;;;13.35;66.73;99743.28;5077375;28;20040;-78
2024/03/30 00:06:45;;;;;;;0.00;0.00;;;;;;;13.36;67.08;99739.69;5072150;28;20415;-80
2024/03/30 00:09:11;;;;;;;0.10;0.10;;;;;;;13.34;67.07;99744.22;5071774;28;20028;-77
2024/03/30 00:11:38;;;;;;;0.10;0.10;;;;;;;13.34;66.75;99734.41;5085891;28;20024;-79
2024/03/30 00:14:04;;;;;;;0.10;0.10;;;;;;;13.33;66.78;99746.00;5074312;28;20035;-77
2024/03/30 00:16:30;;;;;;;0.10;0.10;;;;;;;13.30;67.01;99742.66;5075016;28;20017;-77
2024/03/30 00:18:58;;;;;;;0.10;0.10;;;;;;;13.29;67.20;99738.25;5081536;28;20120;-78
2024/03/30 00:21:24;;;;;;;0.00;0.00;;;;;;;13.25;67.06;99738.38;5081368;28;20037;-78
2024/03/30 00:23:50;;;;;;;0.10;0.10;;;;;;;13.23;66.73;99734.97;5089213;28;20005;-79
2024/03/30 00:26:17;;;;;;;0.10;0.10;;;;;;;13.17;67.11;99732.59;5097890;28;20028;-78
2024/03/30 00:28:43;;;;;;;0.10;0.10;;;;;;;13.19;67.29;99732.53;5090191;28;20036;-79
2024/03/30 00:31:09;;;;;;;0.10;0.10;;;;;;;13.20;67.11;99727.13;5092487;28;20040;-80
2024/03/30 00:33:35;;;;;;;0.10;0.10;;;;;;;13.21;66.63;99731.50;5092163;28;20033;-80
2024/03/30 00:36:02;;;;;;;0.10;0.10;;;;;;;13.19;67.02;99725.38;5091458;28;20040;-81
2024/03/30 00:38:28;;;;;;;0.00;0.00;;;;;;;13.17;67.27;99719.31;5092953;28;20089;-79
2024/03/30 00:40:54;;;;;;;0.00;0.00;;;;;;;13.18;66.94;99722.81;5084351;28;20035;-81
2024/03/30 00:43:21;;;;;;;0.10;0.10;;;;;;;13.17;66.93;99724.63;5085696;28;20024;-81
2024/03/30 00:45:47;;;;;;;0.00;0.00;;;;;;;13.17;66.56;99724.63;5083173;28;20090;-81
2024/03/30 00:48:13;;;;;;;0.00;0.00;;;;;;;13.14;67.26;99724.75;5077609;28;20080;-79
2024/03/30 00:50:40;;;;;;;0.00;0.00;;;;;;;13.14;67.13;99730.06;5073166;28;20496;-81
2024/03/30 00:53:06;;;;;;;0.00;0.00;;;;;;;13.14;66.99;99729.22;5079341;28;20041;-82
2024/03/30 00:55:32;;;;;;;0.00;0.00;;;;;;;13.14;66.77;99727.41;5072147;28;20032;-80
2024/03/30 00:57:59;;;;;;;0.10;0.10;;;;;;;13.12;67.05;99721.28;5080372;28;20032;-78
2024/03/30 01:00:28;;;;;;;0.00;0.00;;;;;;;13.09;67.04;99717.00;5085057;28;20078;-80
2024/03/30 01:02:54;;;;;;;0.00;0.00;;;;;;;13.09;66.94;99711.66;5078016;28;20560;-80
2024/03/30 01:05:20;;;;;;;0.00;0.00;;;;;;;13.08;67.44;99703.78;5079239;28;20410;-80
2024/03/30 01:07:48;;;;;;;0.00;0.00;;;;;;;13.08;66.47;99706.44;5076042;28;20024;-81
2024/03/30 01:10:15;;;;;;;0.03;0.03;;;;;;;13.07;66.84;99712.69;5084326;28;20021;-81
2024/03/30 01:12:45;;;;;;;0.10;0.10;;;;;;;13.06;66.86;99709.19;5080263;28;20101;-82
2024/03/30 01:15:11;;;;;;;0.45;0.45;;;;;;;13.02;66.33;99720.03;5081383;28;20507;-82
2024/03/30 01:17:38;;;;;;;0.00;0.00;;;;;;;13.00;66.70;99717.44;5068570;28;20032;-79
2024/03/30 01:20:05;;;;;;;0.10;0.10;;;;;;;13.00;66.97;99727.25;5073841;28;20499;-81
2024/03/30 01:22:34;;;;;;;0.10;0.10;;;;;;;12.99;66.96;99730.81;5079401;28;20047;-80
2024/03/30 01:25:01;;;;;;;0.10;0.10;;;;;;;12.99;66.48;99725.50;5075796;28;20028;-80
2024/03/30 01:27:28;;;;;;;0.00;0.00;;;;;;;12.95;67.02;99708.84;5076287;28;20021;-82
2024/03/30 01:30:06;;;;;;;0.00;0.00;;;;;;;13.04;66.74;99702.22;5080499;28;20032;-80
2024/03/30 01:32:34;;;;;;;0.10;0.10;;;;;;;13.00;66.70;99690.00;5093524;28;20048;-79
2024/03/30 01:35:01;;;;;;;0.00;0.00;;;;;;;12.97;66.51;99685.69;5083731;28;20043;-80
2024/03/30 01:37:27;;;;;;;0.08;0.08;;;;;;;12.97;66.58;99690.16;5075914;28;20032;-79
2024/03/30 01:39:56;;;;;;;0.10;0.10;;;;;;;12.97;66.64;99695.47;5080553;28;20060;-79
2024/03/30 01:42:30;;;;;;;0.10;0.10;;;;;;;12.98;67.02;99691.88;5074672;28;20035;-78
2024/03/30 01:44:56;;;;;;;0.08;0.08;;;;;;;12.95;66.43;99703.53;5075710;28;20035;-77
2024/03/30 01:47:26;;;;;;;0.00;0.00;;;;;;;12.96;66.57;99705.25;5075107;28;20029;-78
2024/03/30 01:49:55;;;;;;;0.00;0.00;;;;;;;12.93;66.81;99706.25;5075508;28;20488;-78
2024/03/30 01:52:23;;;;;;;0.10;0.10;;;;;;;12.91;66.88;99700.16;5074382;28;20028;-78
2024/03/30 01:54:50;;;;;;;0.00;0.00;;;;;;;12.90;66.90;99703.72;5074268;28;20404;-79
2024/03/30 01:57:19;;;;;;;0.10;0.10;;;;;;;12.91;66.98;99702.81;5076642;28;20028;-79
2024/03/30 01:59:46;;;;;;;0.05;0.05;;;;;;;12.92;66.77;99695.69;5073128;28;20024;-80
2024/03/30 02:02:14;;;;;;;0.10;0.10;;;;;;;12.94;66.60;99697.31;5076379;28;20047;-80
2024/03/30 02:04:41;;;;;;;0.10;0.10;;;;;;;12.94;66.72;99692.00;5074590;28;20448;-80
2024/03/30 02:07:09;;;;;;;0.10;0.10;;;;;;;12.92;66.97;99690.34;5075315;28;20029;-81
2024/03/30 02:09:37;;;;;;;0.00;0.00;;;;;;;12.88;67.16;99686.97;5074858;28;20032;-81
2024/03/30 02:12:03;;;;;;;0.08;0.08;;;;;;;12.84;67.27;99692.53;5080211;28;20035;-80
2024/03/30 02:14:30;;;;;;;0.00;0.00;;;;;;;12.81;66.82;99679.38;5069858;28;20044;-81
2024/03/30 02:16:57;;;;;;;0.00;0.00;;;;;;;12.78;66.71;99693.69;5077321;28;20040;-79
2024/03/30 02:19:23;;;;;;;0.00;0.00;;;;;;;12.75;67.12;99701.81;5086641;28;20107;-78
2024/03/30 02:21:52;;;;;;;0.00;0.00;;;;;;;12.70;67.29;99709.16;5085258;28;20032;-77
2024/03/30 02:24:18;;;;;;;0.00;0.00;;;;;;;12.69;67.05;99712.75;5077152;28;20070;-78
2024/03/30 02:26:44;;;;;;;0.00;0.00;;;;;;;12.67;67.71;99715.44;5081564;28;20092;-79
2024/03/30 02:29:14;;;;;;;0.00;0.00;;;;;;;12.69;67.67;99710.09;5076655;28;20081;-79
2024/03/30 02:31:40;;;;;;;0.10;0.10;;;;;;;12.66;67.45;99703.13;5077094;28;20024;-78
2024/03/30 02:34:07;;;;;;;0.00;0.00;;;;;;;12.61;67.59;99705.09;5073254;28;20116;-79
2024/03/30 02:36:33;;;;;;;0.10;0.10;;;;;;;12.62;67.50;99707.72;5082530;28;20031;-79
2024/03/30 02:38:59;;;;;;;1.23;1.20;;;;;;;12.58;67.86;99713.22;5097147;28;20067;-78
2024/03/30 02:41:25;;;;;;;0.00;0.00;;;;;;;12.56;67.53;99712.44;5077339;28;20072;-78
2024/03/30 02:43:55;;;;;;;0.10;0.10;;;;;;;12.56;67.90;99712.44;5079102;28;20034;-78
2024/03/30 02:46:21;;;;;;;0.08;0.08;;;;;;;12.52;67.75;99711.72;5076505;28;20059;-79
2024/03/30 02:48:48;;;;;;;0.00;0.00;;;;;;;12.52;68.41;99709.06;5088087;28;20028;-79
2024/03/30 02:51:14;;;;;;;0.10;0.10;;;;;;;12.53;67.91;99707.28;5088106;28;20024;-78
2024/03/30 02:53:40;;;;;;;0.10;0.10;;;;;;;12.55;67.74;99702.75;5073005;28;20029;-77
2024/03/30 02:56:07;;;;;;;0.00;0.00;;;;;;;12.53;67.71;99705.47;5082291;28;20101;-81
2024/03/30 02:58:33;;;;;;;0.10;0.10;;;;;;;12.54;68.08;99699.22;5083874;28;20026;-81
2024/03/30 03:00:59;;;;;;;0.10;0.10;;;;;;;12.54;68.31;99701.03;5078674;28;20036;-81
2024/03/30 03:03:25;;;;;;;0.10;0.10;;;;;;;12.53;67.77;99702.81;5078976;28;20025;-79
2024/03/30 03:05:56;;;;;;;0.08;0.08;;;;;;;12.53;68.20;99694.00;5078366;28;20032;-80
2024/03/30 03:08:27;;;;;;;0.10;0.10;;;;;;;12.52;68.22;99697.56;5073926;28;20532;-81
2024/03/30 03:10:53;;;;;;;0.10;0.10;;;;;;;12.50;68.04;99681.72;5071871;28;20035;-81
2024/03/30 03:13:20;;;;;;;0.10;0.10;;;;;;;12.50;68.27;99692.34;5075750;28;20387;-79
2024/03/30 03:15:47;;;;;;;0.05;0.05;;;;;;;12.50;68.27;99681.72;5078670;28;20063;-81
2024/03/30 03:18:13;;;;;;;0.05;0.05;;;;;;;12.52;68.66;99687.78;5075836;28;20029;-81
2024/03/30 03:20:39;;;;;;;0.30;0.30;;;;;;;12.51;68.76;99686.09;5072220;28;20024;-80
2024/03/30 03:23:05;;;;;;;0.00;0.00;;;;;;;12.52;68.84;99686.94;5069197;28;20046;-80
2024/03/30 03:25:31;;;;;;;0.10;0.10;;;;;;;12.51;69.23;99687.88;5074618;28;20050;-81
2024/03/30 03:27:58;;;;;;;0.10;0.10;;;;;;;12.51;68.76;99698.50;5080757;28;20028;-81
2024/03/30 03:30:24;;;;;;;0.10;0.10;;;;;;;12.50;69.19;99692.34;5079269;28;20104;-81
2024/03/30 03:32:50;;;;;;;0.00;0.00;;;;;;;12.53;68.74;99691.34;5072737;28;20024;-81
2024/03/30 03:35:16;;;;;;;0.08;0.08;;;;;;;12.52;69.30;99682.47;5075012;28;20044;-80
2024/03/30 03:37:43;;;;;;;0.10;0.10;;;;;;;12.53;69.43;99681.56;5073249;28;20029;-83
2024/03/30 03:40:09;;;;;;;0.00;0.00;;;;;;;12.54;68.68;99677.97;5077816;28;20035;-82
2024/03/30 03:42:35;;;;;;;0.00;0.00;;;;;;;12.52;68.68;99674.50;5079603;28;20041;-81
2024/03/30 03:45:02;;;;;;;0.00;0.00;;;;;;;12.54;69.18;99677.13;5098361;28;20025;-79
2024/03/30 03:47:28;;;;;;;0.10;0.10;;;;;;;12.53;68.93;99672.72;5091902;28;20061;-80
2024/03/30 03:49:54;;;;;;;0.10;0.10;;;;;;;12.48;69.05;99667.63;5069283;28;20036;-80
2024/03/30 03:52:20;;;;;;;0.08;0.08;;;;;;;12.50;68.99;99679.06;5071128;28;20024;-77
2024/03/30 03:54:47;;;;;;;0.03;0.03;;;;;;;12.50;69.32;99676.41;5077195;28;20441;-80
2024/03/30 03:57:13;;;;;;;0.00;0.00;;;;;;;12.49;69.28;99673.81;5072341;28;20032;-79
2024/03/30 03:59:39;;;;;;;0.43;0.38;;;;;;;12.45;69.31;99673.09;5071894;28;20040;-79
2024/03/30 04:02:05;;;;;;;0.08;0.08;;;;;;;12.47;69.29;99665.91;5070257;28;20021;-80
2024/03/30 04:04:32;;;;;;;0.10;0.10;;;;;;;12.47;69.63;99665.91;5073265;28;20035;-80
2024/03/30 04:06:59;;;;;;;0.10;0.10;;;;;;;12.46;69.40;99664.16;5073233;28;20090;-80
2024/03/30 04:09:25;;;;;;;0.10;0.10;;;;;;;12.44;69.01;99660.75;5081683;28;20450;-80
2024/03/30 04:11:51;;;;;;;0.00;0.00;;;;;;;12.44;69.34;99658.09;5069578;28;20028;-80
2024/03/30 04:14:17;;;;;;;0.10;0.10;;;;;;;12.41;70.05;99653.78;5084192;28;20040;-79
2024/03/30 04:16:43;;;;;;;1.52;1.42;;;;;;;12.43;69.10;99648.38;5077069;28;20518;-78
2024/03/30 04:19:17;;;;;;;0.10;0.10;;;;;;;12.43;69.81;99638.59;5069969;28;20067;-81
2024/03/30 04:21:44;;;;;;;0.00;0.00;;;;;;;12.43;69.34;99648.38;5077305;28;20039;-79
2024/03/30 04:24:11;;;;;;;0.40;0.40;;;;;;;12.38;69.67;99651.25;5080636;28;20021;-81
2024/03/30 04:26:38;;;;;;;0.10;0.10;;;;;;;12.40;69.61;99637.88;5076446;28;20032;-79
2024/03/30 04:29:05;;;;;;;0.10;0.10;;;;;;;12.36;69.44;99631.88;5078635;28;20037;-80
2024/03/30 04:31:33;;;;;;;0.10;0.10;;;;;;;12.40;69.43;99632.56;5076237;28;20078;-78
2024/03/30 04:33:59;;;;;;;0.10;0.10;;;;;;;12.39;69.87;99633.53;5068155;28;20041;-80
2024/03/30 04:36:25;;;;;;;0.00;0.00;;;;;;;12.40;69.27;99624.59;5072584;28;20039;-80
2024/03/30 04:38:51;;;;;;;0.00;0.00;;;;;;;12.39;70.11;99628.22;5071347;28;20027;-81
2024/03/30 04:41:18;;;;;;;0.05;0.05;;;;;;;12.41;69.76;99618.38;5074915;28;20051;-81
2024/03/30 04:43:44;;;;;;;0.10;0.10;;;;;;;12.40;69.59;99612.22;5075615;28;20016;-80
2024/03/30 04:46:12;;;;;;;0.00;0.00;;;;;;;12.39;70.17;99621.09;5075133;28;20529;-81
2024/03/30 04:48:38;;;;;;;0.00;0.00;;;;;;;12.36;70.28;99620.38;5080060;28;20032;-80
2024/03/30 04:51:04;;;;;;;0.10;0.10;;;;;;;12.36;70.11;99620.38;5097591;28;20001;-79
2024/03/30 04:53:33;;;;;;;0.00;0.00;;;;;;;12.37;69.74;99622.13;5099737;28;20021;-79
2024/03/30 04:56:03;;;;;;;0.03;0.03;;;;;;;12.40;70.07;99619.28;5096707;28;20093;-78
2024/03/30 04:58:32;;;;;;;0.10;0.10;;;;;;;12.35;70.23;99618.66;5075698;28;20035;-78
2024/03/30 05:01:03;;;;;;;0.10;0.10;;;;;;;12.36;69.87;99615.06;5075328;28;20051;-79
2024/03/30 05:03:30;;;;;;;0.20;0.20;;;;;;;12.35;69.86;99614.22;5076291;28;20024;-79
2024/03/30 05:05:57;;;;;;;0.10;0.10;;;;;;;12.35;69.56;99608.91;5075591;28;20107;-80
2024/03/30 05:08:23;;;;;;;0.10;0.10;;;;;;;12.36;69.65;99609.75;5074446;28;20044;-79
2024/03/30 05:10:52;;;;;;;0.00;0.00;;;;;;;12.37;69.67;99608.84;5074272;28;20042;-79
2024/03/30 05:13:19;;;;;;;0.10;0.10;;;;;;;12.39;69.91;99612.28;5074310;28;20098;-80
2024/03/30 05:15:46;;;;;;;0.00;0.00;;;;;;;12.38;69.61;99613.22;5073616;28;20040;-80
2024/03/30 05:18:13;;;;;;;0.10;0.10;;;;;;;12.39;69.70;99605.16;5072346;28;20107;-80
2024/03/30 05:20:57;;;;;;;0.10;0.10;;;;;;;12.42;69.92;99604.16;5090383;28;20066;-79
2024/03/30 05:23:26;;;;;;;0.08;0.08;;;;;;;12.44;69.46;99603.16;5081586;28;20380;-80
2024/03/30 05:25:54;;;;;;;0.10;0.10;;;;;;;12.44;69.45;99602.31;5074015;28;20037;-80
2024/03/30 05:28:23;;;;;;;0.00;0.00;;;;;;;12.46;69.80;99600.41;5072556;28;20096;-79
2024/03/30 05:30:50;;;;;;;0.00;0.00;;;;;;;12.48;69.54;99601.22;5073219;28;20044;-80
2024/03/30 05:33:19;;;;;;;0.08;0.08;;;;;;;12.50;69.33;99591.38;5073952;28;20031;-79
2024/03/30 05:35:47;;;;;;;0.22;0.22;;;;;;;12.52;69.63;99586.84;5073882;28;20491;-78
2024/03/30 05:38:14;;;;;;;0.10;0.10;;;;;;;12.55;69.34;99593.81;5073180;28;20035;-79
2024/03/30 05:40:40;;;;;;;0.03;0.03;;;;;;;12.55;69.31;99593.81;5076872;28;20059;-77
2024/03/30 05:43:07;;;;;;;0.00;0.00;;;;;;;12.56;69.74;99600.84;5068011;28;20081;-80
2024/03/30 05:45:34;;;;;;;0.32;0.32;;;;;;;12.55;69.52;99602.66;5074876;28;20032;-79
2024/03/30 05:48:01;;;;;;;0.03;0.03;;;;;;;12.56;70.11;99611.47;5092808;28;20020;-78
2024/03/30 05:50:28;;;;;;;0.10;0.10;;;;;;;12.57;69.51;99611.41;5093550;28;20024;-79
2024/03/30 05:52:55;;;;;;;0.10;0.10;;;;;;;12.57;69.31;99613.19;5081428;28;20032;-78
2024/03/30 05:55:21;;;;;;;0.10;0.10;;;;;;;12.56;69.52;99622.09;5079421;28;20027;-77
2024/03/30 05:57:49;;;;;;;0.00;0.00;;;;;;;12.56;69.84;99622.97;5089726;28;20029;-75
2024/03/30 06:00:15;;;;;;;0.00;0.00;;;;;;;12.56;69.95;99628.28;5093737;28;20036;-79
2024/03/30 06:02:44;;;;;;;0.10;0.10;;;;;;;12.57;69.73;99621.16;5071200;28;20048;-80
2024/03/30 06:05:11;;;;;;;0.13;0.13;;;;;;;12.56;70.46;99614.13;5085968;28;20035;-79
2024/03/30 06:07:38;;;;;;;0.03;0.03;;;;;;;12.56;70.34;99608.81;5096337;28;20047;-76
2024/03/30 06:10:07;;;;;;;0.10;0.10;;;;;;;12.56;70.03;99612.34;5085837;28;20040;-78
2024/03/30 06:12:33;;;;;;;0.20;0.20;;;;;;;12.54;70.11;99608.88;5078838;28;20028;-78
2024/03/30 06:15:00;;;;;;;0.00;0.00;;;;;;;12.53;70.55;99607.16;5073121;28;20028;-79
2024/03/30 06:17:27;;;;;;;0.00;0.00;;;;;;;12.52;69.54;99602.78;5075398;28;20025;-78
2024/03/30 06:19:53;;;;;;;0.10;0.10;;;;;;;12.52;70.07;99599.28;5073462;28;20024;-79
2024/03/30 06:22:19;;;;;;;0.00;0.00;;;;;;;12.51;70.38;99597.53;5073614;28;20107;-79
2024/03/30 06:24:45;;;;;;;0.00;0.00;;;;;;;12.49;70.05;99592.31;5073771;28;20033;-79
2024/03/30 06:27:11;;;;;;;0.10;0.10;;;;;;;12.48;70.85;99598.56;5073427;28;20029;-79
2024/03/30 06:29:39;;;;;;;0.10;0.10;;;;;;;12.49;70.45;99594.97;5072791;28;20089;-79
2024/03/30 06:32:05;;;;;;;0.10;0.10;;;;;;;12.47;70.23;99596.81;5073867;28;20410;-79
2024/03/30 06:34:32;;;;;;;0.10;0.10;;;;;;;12.45;69.96;99599.56;5073368;28;20422;-79
2024/03/30 06:36:58;;;;;;;0.00;0.00;;;;;;;12.43;70.54;99592.59;5073435;28;20403;-80
2024/03/30 06:39:25;;;;;;;0.00;0.00;;;;;;;12.43;70.49;99600.56;5072617;28;20091;-78
2024/03/30 06:44:37;;;;;;;0.10;0.10;;;;;;;12.41;70.66;99618.38;5071656;28;20044;-78
2024/03/30 06:47:03;;;;;;;0.00;0.00;;;;;;;12.39;71.11;99606.97;5074397;28;20025;-78
2024/03/30 06:49:29;;;;;;;0.00;0.00;;;;;;;12.39;71.00;99606.97;5076765;28;20099;-78
2024/03/30 06:51:55;;;;;;;0.10;0.10;;;;;;;12.40;70.67;99611.31;5073299;28;20086;-79
2024/03/30 06:54:22;;;;;;;0.10;0.10;;;;;;;12.42;70.95;99614.78;5075453;28;20372;-78
2024/03/30 06:56:48;;;;;;;0.00;0.00;;;;;;;12.43;70.92;99619.16;5077598;28;20040;-78
2024/03/30 06:59:14;;;;;;;0.17;0.17;;;;;;;12.42;71.60;99620.09;5078296;28;20024;-78
2024/03/30 07:01:40;;;;;;;0.00;0.00;;;;;;;12.45;71.54;99617.31;5078551;28;20033;-77
2024/03/30 07:04:06;;;;;;;0.00;0.00;;;;;;;12.45;71.28;99612.84;5088234;28;20016;-77
2024/03/30 07:06:32;;;;;;;0.05;0.05;;;;;;;12.48;71.07;99613.66;5097025;28;20036;-78
2024/03/30 07:08:59;;;;;;;0.05;0.05;;;;;;;12.50;71.09;99617.06;5076003;28;20064;-78
2024/03/30 07:11:26;;;;;;;0.03;0.03;;;;;;;12.49;71.26;99602.94;5073001;28;20025;-76
2024/03/30 07:13:52;;;;;;;0.10;0.10;;;;;;;12.49;71.21;99600.28;5076597;28;20412;-77
2024/03/30 07:16:18;;;;;;;0.10;0.10;;;;;;;12.48;71.38;99598.56;5077698;28;20361;-78
2024/03/30 07:18:45;;;;;;;0.00;0.00;;;;;;;12.47;71.13;99604.78;5072341;28;20474;-78
2024/03/30 07:21:12;;;;;;;0.00;0.00;;;;;;;12.46;71.26;99605.72;5080981;28;20032;-78
2024/03/30 07:23:38;;;;;;;0.10;0.10;;;;;;;12.45;71.01;99609.34;5089261;28;20035;-77
2024/03/30 07:26:06;;;;;;;0.10;0.10;;;;;;;12.42;71.31;99612.13;5078316;28;20032;-77
2024/03/30 07:28:32;;;;;;;0.03;0.03;;;;;;;12.42;71.33;99605.03;5068492;28;20095;-78
2024/03/30 07:31:05;;;;;;;0.00;0.00;;;;;;;12.48;71.67;99609.19;5068541;28;20519;-79
2024/03/30 07:33:32;;;;;;;0.10;0.10;;;;;;;12.45;71.65;99604.03;5072663;28;20020;-79
2024/03/30 07:35:59;;;;;;;0.10;0.10;;;;;;;12.47;71.52;99607.44;5073111;28;20035;-76
2024/03/30 07:38:29;;;;;;;0.00;0.00;;;;;;;12.45;71.00;99599.56;5070891;28;20403;-78
2024/03/30 07:40:55;;;;;;;0.10;0.10;;;;;;;12.44;71.04;99599.66;5068638;28;20147;-78
2024/03/30 07:43:23;;;;;;;0.10;0.10;;;;;;;12.43;71.64;99600.56;5071792;28;20025;-78
2024/03/30 07:45:49;;;;;;;0.05;0.05;;;;;;;12.41;71.59;99591.81;5067901;28;20032;-77
2024/03/30 07:48:15;;;;;;;0.00;0.00;;;;;;;12.39;71.19;99596.34;5069476;28;20056;-77
2024/03/30 07:50:42;;;;;;;0.10;0.10;;;;;;;12.34;71.17;99601.88;5074952;28;20051;-77
2024/03/30 07:53:08;;;;;;;0.10;0.10;;;;;;;12.32;70.82;99608.19;5080665;28;20120;-77
2024/03/30 07:55:34;;;;;;;0.10;0.10;;;;;;;12.30;71.53;99603.81;5070871;28;20043;-78
2024/03/30 07:58:00;;;;;;;0.00;0.00;;;;;;;12.28;71.77;99608.31;5067756;28;20032;-76
2024/03/30 08:00:27;;;;;;;0.00;0.00;;;;;;;12.29;71.13;99610.03;5073977;28;20086;-78
2024/03/30 08:02:59;;;;;;;0.00;0.00;;;;;;;12.29;71.82;99610.03;5073203;28;20422;-79
2024/03/30 08:05:26;;;;;;;0.00;0.00;;;;;;;12.30;71.79;99608.28;5075009;28;20066;-79
2024/03/30 08:07:53;;;;;;;0.10;0.10;;;;;;;12.29;72.64;99615.34;5053556;28;20028;-78
2024/03/30 08:10:19;;;;;;;0.00;0.00;;;;;;;12.28;72.11;99604.81;5079624;28;20025;-77
2024/03/30 08:12:46;;;;;;;0.22;0.22;;;;;;;12.18;72.98;99607.03;5076114;28;20045;-77
2024/03/30 08:15:12;;;;;;;0.35;0.35;;;;;;;12.22;71.60;99610.41;5081472;28;20404;-79
2024/03/30 08:17:38;;;;;;;0.00;0.00;;;;;;;12.22;72.20;99599.78;5077375;28;20032;-80
2024/03/30 08:20:05;;;;;;;0.10;0.10;;;;;;;12.17;72.57;99578.75;5080032;28;20029;-79
2024/03/30 08:22:35;;;;;;;0.00;0.00;;;;;;;12.19;72.76;99584.03;5076072;28;20021;-78
2024/03/30 08:25:03;;;;;;;0.10;0.10;;;;;;;12.16;72.69;99582.34;5070869;28;20399;-77
2024/03/30 08:27:29;;;;;;;0.10;0.10;;;;;;;12.17;72.81;99576.09;5073812;28;20044;-79
2024/03/30 08:29:55;;;;;;;0.00;0.00;;;;;;;12.08;73.70;99581.84;5069586;28;20043;-76
2024/03/30 08:32:21;;;;;;;0.00;0.00;;;;;;;12.04;73.37;99575.81;5072797;28;20120;-77
2024/03/30 08:34:47;;;;;;;0.10;0.10;;;;;;;12.07;72.95;99564.19;5075871;28;20066;-76
2024/03/30 08:37:14;;;;;;;0.10;0.10;;;;;;;12.08;73.36;99573.88;5075449;28;20027;-77
2024/03/30 08:39:40;;;;;;;0.65;0.65;;;;;;;12.10;72.86;99567.56;5073803;28;20044;-79
2024/03/30 08:42:06;;;;;;;0.03;0.03;;;;;;;12.11;73.61;99569.31;5074102;28;20036;-77
2024/03/30 08:44:32;;;;;;;0.03;0.03;;;;;;;12.14;72.96;99578.91;5074816;28;20021;-78
2024/03/30 08:46:59;;;;;;;0.00;0.00;;;;;;;12.17;72.77;99570.78;5073468;28;20649;-78
2024/03/30 08:49:25;;;;;;;0.10;0.10;;;;;;;12.21;73.07;99572.38;5074814;28;20025;-77
2024/03/30 08:51:51;;;;;;;0.00;0.00;;;;;;;12.20;72.87;99568.00;5069913;28;20029;-77
2024/03/30 08:54:17;;;;;;;0.08;0.08;;;;;;;12.21;73.09;99568.84;5071438;28;20070;-78
2024/03/30 08:56:43;;;;;;;0.10;0.10;;;;;;;12.21;72.90;99560.88;5073154;28;20062;-77
2024/03/30 08:59:09;;;;;;;0.08;0.08;;;;;;;12.12;73.01;99555.09;5069638;28;20119;-79
2024/03/30 09:04:12;;;;;;;0.03;0.03;;;;;;;12.12;73.59;99548.91;5358230;22;20404;-80
2024/03/30 09:06:38;;;;;;;0.10;0.10;;;;;;;12.07;74.14;99550.94;5013358;28;20034;-81
2024/03/30 09:09:04;;;;;;;0.10;0.10;;;;;;;12.11;73.82;99541.88;5007475;28;20030;-80
2024/03/30 09:11:30;;;;;;;0.10;0.10;;;;;;;12.18;73.41;99548.63;5016638;28;20022;-80
2024/03/30 09:13:56;;;;;;;0.00;0.00;;;;;;;12.18;72.71;99548.63;5015850;28;20138;-81
2024/03/30 09:16:22;;;;;;;0.00;0.00;;;;;;;12.15;73.71;99548.78;5028763;28;20042;-79
2024/03/30 09:18:48;;;;;;;0.00;0.00;;;;;;;12.17;73.22;99538.06;5034344;28;20131;-80
2024/03/30 09:21:15;;;;;;;0.00;0.00;;;;;;;12.18;73.03;99538.00;5031466;28;20041;-81
2024/03/30 09:23:42;;;;;;;0.45;0.45;;;;;;;12.13;73.09;99529.41;5032424;28;20048;-80
2024/03/30 09:26:08;;;;;;;0.10;0.10;;;;;;;12.08;73.16;99520.78;5027783;28;20026;-79
2024/03/30 09:28:35;;;;;;;0.25;0.25;;;;;;;12.13;73.17;99509.00;5029492;28;20030;-80
2024/03/30 09:31:01;;;;;;;0.10;0.10;;;;;;;12.13;73.69;99514.31;5031350;28;20033;-82
2024/03/30 09:33:28;;;;;;;0.80;0.80;;;;;;;12.19;73.13;99521.13;5027803;28;20072;-82
2024/03/30 09:35:55;;;;;;;0.10;0.10;;;;;;;12.21;73.17;99513.97;5022261;28;20030;-83
2024/03/30 09:38:22;;;;;;;0.00;0.00;;;;;;;12.21;73.20;99521.94;5027413;28;20026;-83
2024/03/30 09:40:54;;;;;;;0.05;0.05;;;;;;;12.30;73.52;99518.81;5021804;28;20109;-82
2024/03/30 09:43:21;;;;;;;0.57;0.57;;;;;;;12.35;73.50;99517.72;5016028;28;20049;-84
2024/03/30 09:45:49;;;;;;;0.30;0.30;;;;;;;12.39;73.53;99516.66;5015933;28;20047;-83
2024/03/30 09:48:18;;;;;;;0.10;0.10;;;;;;;12.41;73.54;99523.63;5021675;28;20030;-84
2024/03/30 09:50:45;;;;;;;0.10;0.10;;;;;;;12.39;73.24;99530.78;5026265;28;20034;-84
2024/03/30 09:53:13;;;;;;;0.10;0.10;;;;;;;12.33;72.78;99530.25;5025146;28;20030;-82
2024/03/30 09:55:40;;;;;;;0.30;0.30;;;;;;;12.39;72.70;99529.94;5024420;28;20026;-82
2024/03/30 09:58:07;;;;;;;0.10;0.10;;;;;;;12.45;72.60;99532.31;5023159;28;20045;-83
2024/03/30 10:00:34;;;;;;;0.10;0.10;;;;;;;12.46;72.94;99534.00;5031662;28;20028;-81
2024/03/30 10:03:00;;;;;;;0.08;0.08;;;;;;;12.50;72.45;99532.06;5040699;28;20025;-81
2024/03/30 10:05:27;;;;;;;0.10;0.10;;;;;;;12.50;72.39;99535.59;5048607;28;20399;-81
2024/03/30 10:10:30;;;;;;;1.77;1.67;;;;;;;12.51;72.59;99529.34;5109970;27;20384;-76
2024/03/30 10:13:03;;;;;;;8.40;0.95;;;;;;;12.53;72.71;99532.78;5087023;28;20036;-76
2024/03/30 10:15:52;;;;;;;0.00;0.00;;;;;;;12.57;72.72;99529.03;5088342;28;20020;-77
2024/03/30 10:18:18;;;;;;;0.10;0.10;;;;;;;12.37;73.05;99521.19;5087336;28;20024;-74
2024/03/30 10:20:45;;;;;;;0.00;0.00;;;;;;;12.47;73.18;99527.75;5092930;28;20043;-78
2024/03/30 10:23:11;;;;;;;0.10;0.10;;;;;;;12.42;73.51;99516.50;5087286;28;20204;-77
2024/03/30 10:25:37;;;;;;;0.10;0.10;;;;;;;12.40;72.94;99507.72;5093693;28;20122;-78
2024/03/30 10:28:05;;;;;;;0.38;0.38;;;;;;;12.41;72.80;99513.00;5107565;28;20053;-79
2024/03/30 10:30:32;;;;;;;0.10;0.10;;;;;;;12.43;73.23;99500.47;5089443;28;20081;-77
2024/03/30 10:33:10;;;;;;;0.05;0.05;;;;;;;12.48;73.37;99502.06;5091443;28;20028;-76
2024/03/30 10:35:37;;;;;;;0.10;0.10;;;;;;;12.48;73.27;99512.69;5091677;28;20431;-77
2024/03/30 10:38:04;;;;;;;0.08;0.08;;;;;;;12.56;72.83;99513.16;5089315;28;20059;-77
2024/03/30 10:40:31;;;;;;;0.38;0.38;;;;;;;12.51;72.89;99513.41;5090301;28;20040;-77
2024/03/30 10:42:58;;;;;;;0.30;0.30;;;;;;;12.58;72.62;99519.25;5090011;28;20024;-77
2024/03/30 10:45:25;;;;;;;0.30;0.30;;;;;;;12.52;73.15;99509.78;5090594;28;20398;-77
2024/03/30 10:47:55;;;;;;;0.20;0.20;;;;;;;12.52;73.48;99514.25;5090119;28;20028;-77
2024/03/30 10:50:22;;;;;;;0.10;0.10;;;;;;;12.50;72.71;99503.72;5090042;28;20046;-76
2024/03/30 10:52:48;;;;;;;0.10;0.10;;;;;;;12.50;72.60;99509.03;5088545;28;20032;-78
2024/03/30 10:55:15;;;;;;;0.57;0.57;;;;;;;12.45;72.70;99513.72;5081609;28;20033;-77
2024/03/30 10:57:42;;;;;;;0.68;0.68;;;;;;;12.43;72.84;99510.25;5085954;28;20082;-79
2024/03/30 11:00:10;;;;;;;0.55;0.55;;;;;;;12.54;72.82;99526.53;5086080;28;20428;-78
2024/03/30 11:02:38;;;;;;;3.95;0.73;;;;;;;12.58;72.99;99519.25;5082264;28;20021;-78
2024/03/30 11:05:05;;;;;;;0.10;0.10;;;;;;;12.59;72.70;99535.13;5081032;28;20028;-77
2024/03/30 11:07:36;;;;;;;0.10;0.10;;;;;;;12.61;72.94;99551.88;5080154;28;20039;-78
2024/03/30 11:10:04;;;;;;;0.15;0.15;;;;;;;12.56;72.73;99537.94;5084214;28;20484;-78
2024/03/30 11:12:32;;;;;;;0.10;0.10;;;;;;;12.48;73.26;99539.25;5077700;28;20104;-76
2024/03/30 11:14:58;;;;;;;0.85;0.70;;;;;;;12.55;72.80;99540.69;5087013;28;20036;-79
2024/03/30 11:17:30;;;;;;;1.98;1.08;;;;;;;12.62;72.30;99547.41;5084659;28;20032;-78
2024/03/30 11:20:15;;;;;;;0.30;0.30;;;;;;;12.61;72.45;99550.97;5084337;28;20050;-79
2024/03/30 11:23:04;;;;;;;0.10;0.10;;;;;;;12.62;72.67;99547.41;5069606;28;20484;-77
2024/03/30 11:25:33;;;;;;;0.10;0.10;;;;;;;12.64;72.08;99540.22;5080873;28;20035;-77
2024/03/30 11:28:14;;;;;;;0.10;0.10;;;;;;;12.62;72.49;99548.28;5079051;28;20028;-76
2024/03/30 11:33:28;;;;;;;0.00;0.00;;;;;;;12.53;72.49;99575.28;5098330;27;1208627;-77
2024/03/30 11:36:05;;;;;;;0.10;0.10;;;;;;;12.54;71.98;99582.31;5134211;27;20038;-76
2024/03/30 11:38:34;;;;;;;0.63;0.63;;;;;;;12.49;72.40;99579.03;5121749;28;20114;-78
2024/03/30 11:41:03;;;;;;;1.85;0.57;;;;;;;12.49;72.11;99579.03;5125982;27;20038;-77
2024/03/30 11:46:19;;;;;;;0.10;0.10;;;;;;;12.44;72.59;99589.03;5082344;27;20241;-79
2024/03/30 11:48:46;;;;;;;0.20;0.20;;;;;;;12.44;72.76;99597.84;5067352;28;20071;-78